createdAt,value
2023-01-26T00:02:18.628Z,-5.65
2023-01-26T00:04:46.904Z,-5.68
2023-01-26T00:07:16.310Z,-5.73
2023-01-26T00:09:44.392Z,-5.79
2023-01-26T00:12:12.576Z,-5.77
2023-01-26T00:14:50.171Z,-5.74
2023-01-26T00:17:26.333Z,-5.71
2023-01-26T00:19:55.824Z,-5.69
2023-01-26T00:22:25.027Z,-5.68
2023-01-26T00:24:56.280Z,-5.70
2023-01-26T00:27:24.553Z,-5.73
2023-01-26T00:29:52.920Z,-5.75
2023-01-26T00:32:22.017Z,-5.75
2023-01-26T00:34:50.243Z,-5.77
2023-01-26T00:37:18.467Z,-5.85
2023-01-26T00:39:46.944Z,-5.90
2023-01-26T00:42:16.128Z,-5.95
2023-01-26T00:44:44.541Z,-5.97
2023-01-26T00:47:14.888Z,-5.97
2023-01-26T00:49:43.437Z,-6.01
2023-01-26T00:52:12.761Z,-6.05
2023-01-26T00:54:40.852Z,-6.08
2023-01-26T00:57:09.187Z,-6.10
2023-01-26T00:59:37.598Z,-6.11
2023-01-26T01:02:06.079Z,-6.11
2023-01-26T01:04:35.851Z,-6.12
2023-01-26T01:07:04.242Z,-6.10
2023-01-26T01:09:33.901Z,-6.06
2023-01-26T01:12:02.236Z,-6.07
2023-01-26T01:14:30.926Z,-6.11
2023-01-26T01:16:59.779Z,-6.13
2023-01-26T01:19:28.700Z,-6.10
2023-01-26T01:21:57.134Z,-6.05
2023-01-26T01:24:25.707Z,-6.01
2023-01-26T01:26:53.901Z,-5.96
2023-01-26T01:29:22.318Z,-5.88
2023-01-26T01:31:50.704Z,-5.81
2023-01-26T01:34:18.977Z,-5.73
2023-01-26T01:36:50.393Z,-5.67
2023-01-26T01:39:18.597Z,-5.69
2023-01-26T01:41:46.979Z,-5.68
2023-01-26T01:44:19.866Z,-5.62
2023-01-26T01:46:55.366Z,-5.57
2023-01-26T01:49:26.448Z,-5.56
2023-01-26T01:52:07.117Z,-5.56
2023-01-26T01:54:39.718Z,-5.51
2023-01-26T01:57:15.669Z,-5.52
2023-01-26T01:59:48.044Z,-5.51
2023-01-26T02:02:16.664Z,-5.47
2023-01-26T02:04:45.087Z,-5.43
2023-01-26T02:07:13.673Z,-5.38
2023-01-26T02:10:00.597Z,-5.29
2023-01-26T02:12:30.804Z,-5.25
2023-01-26T02:14:58.925Z,-5.29
2023-01-26T02:17:27.575Z,-5.37
2023-01-26T02:20:02.518Z,-5.43
2023-01-26T02:23:01.480Z,-5.48
2023-01-26T02:25:54.885Z,-5.48
2023-01-26T02:28:26.424Z,-5.44
2023-01-26T02:30:54.930Z,-5.42
2023-01-26T02:33:25.020Z,-5.41
2023-01-26T02:35:55.548Z,-5.38
2023-01-26T02:38:26.282Z,-5.32
2023-01-26T02:40:56.812Z,-5.25
2023-01-26T02:43:26.759Z,-5.16
2023-01-26T02:45:55.599Z,-5.04
2023-01-26T02:48:47.043Z,-4.94
2023-01-26T02:51:15.260Z,-4.83
2023-01-26T02:53:44.280Z,-4.76
2023-01-26T02:56:12.947Z,-4.71
2023-01-26T02:58:41.781Z,-4.63
2023-01-26T03:01:10.950Z,-4.64
2023-01-26T03:03:48.077Z,-4.68
2023-01-26T03:06:16.568Z,-4.71
2023-01-26T03:08:45.128Z,-4.75
2023-01-26T03:11:13.510Z,-4.76
2023-01-26T03:13:41.890Z,-4.74
2023-01-26T03:16:12.071Z,-4.67
2023-01-26T03:18:59.291Z,-4.59
2023-01-26T03:21:46.145Z,-4.54
2023-01-26T03:24:33.771Z,-4.60
2023-01-26T03:27:22.206Z,-4.73
2023-01-26T03:29:50.498Z,-4.80
2023-01-26T03:32:18.986Z,-4.84
2023-01-26T03:34:48.175Z,-4.87
2023-01-26T03:37:16.456Z,-4.91
2023-01-26T03:40:10.249Z,-4.93
2023-01-26T03:42:57.968Z,-4.91
2023-01-26T03:45:45.183Z,-4.91
2023-01-26T03:48:32.512Z,-4.94
2023-01-26T03:51:20.017Z,-4.97
2023-01-26T03:54:07.015Z,-4.98
2023-01-26T03:56:35.853Z,-4.99
2023-01-26T03:59:11.208Z,-5.10
2023-01-26T04:02:04.199Z,-5.24
2023-01-26T04:04:52.090Z,-5.36
2023-01-26T04:07:43.003Z,-5.48
2023-01-26T04:10:12.172Z,-5.62
2023-01-26T04:12:41.602Z,-5.72
2023-01-26T04:15:36.984Z,-5.79
2023-01-26T04:18:26.280Z,-5.86
2023-01-26T04:21:14.209Z,-5.82
2023-01-26T04:23:44.387Z,-5.85
2023-01-26T04:26:14.144Z,-5.91
2023-01-26T04:28:42.525Z,-5.99
2023-01-26T04:31:11.219Z,-6.07
2023-01-26T04:33:40.218Z,-6.13
2023-01-26T04:36:09.408Z,-6.17
2023-01-26T04:38:40.961Z,-6.18
2023-01-26T04:41:09.641Z,-6.17
2023-01-26T04:43:44.603Z,-6.18
2023-01-26T04:46:12.741Z,-6.17
2023-01-26T04:48:42.255Z,-6.14
2023-01-26T04:51:15.665Z,-6.12
2023-01-26T04:53:43.938Z,-6.11
2023-01-26T04:56:21.238Z,-6.07
2023-01-26T04:58:50.102Z,-6.04
2023-01-26T05:01:18.869Z,-6.02
2023-01-26T05:03:47.481Z,-6.03
2023-01-26T05:06:16.300Z,-5.99
2023-01-26T05:08:47.002Z,-5.93
2023-01-26T05:11:15.573Z,-5.83
2023-01-26T05:14:02.605Z,-5.78
2023-01-26T05:16:39.330Z,-5.70
2023-01-26T05:19:25.305Z,-5.55
2023-01-26T05:22:06.250Z,-5.44
2023-01-26T05:24:35.893Z,-5.36
2023-01-26T05:27:24.397Z,-5.23
2023-01-26T05:30:03.016Z,-5.08
2023-01-26T05:32:34.224Z,-5.01
2023-01-26T05:35:02.524Z,-4.99
2023-01-26T05:37:32.207Z,-4.95
2023-01-26T05:40:00.541Z,-4.87
2023-01-26T05:42:28.916Z,-4.81
2023-01-26T05:45:16.168Z,-4.77
2023-01-26T05:47:45.816Z,-4.71
2023-01-26T05:50:14.765Z,-4.70
2023-01-26T05:52:44.259Z,-4.74
2023-01-26T05:55:12.631Z,-4.76
2023-01-26T05:57:41.212Z,-4.68
2023-01-26T06:00:12.082Z,-4.57
2023-01-26T06:02:45.897Z,-4.45
2023-01-26T06:05:15.150Z,-4.43
2023-01-26T06:07:46.097Z,-4.50
2023-01-26T06:10:26.876Z,-4.60
2023-01-26T06:13:02.193Z,-4.61
2023-01-26T06:15:47.974Z,-4.58
2023-01-26T06:18:19.513Z,-4.55
2023-01-26T06:20:53.557Z,-4.48
2023-01-26T06:23:21.913Z,-4.41
2023-01-26T06:25:51.950Z,-4.25
2023-01-26T06:28:21.834Z,-4.02
2023-01-26T06:30:50.168Z,-3.82
2023-01-26T06:33:18.376Z,-3.58
2023-01-26T06:35:47.144Z,-3.27
2023-01-26T06:38:16.100Z,-2.93
2023-01-26T06:40:45.454Z,-2.58
2023-01-26T06:43:15.997Z,-2.24
2023-01-26T06:45:44.444Z,-1.94
2023-01-26T06:48:13.189Z,-1.61
2023-01-26T06:50:41.510Z,-1.17
2023-01-26T06:53:25.551Z,-0.74
2023-01-26T06:56:10.673Z,-0.44
2023-01-26T06:58:58.386Z,-0.18
2023-01-26T07:01:51.328Z,0.03
2023-01-26T07:04:20.098Z,0.16
2023-01-26T07:06:48.233Z,0.29
2023-01-26T07:09:16.599Z,0.36
2023-01-26T07:11:45.219Z,0.43
2023-01-26T07:14:13.581Z,0.61
2023-01-26T07:16:41.725Z,0.89
2023-01-26T07:19:09.993Z,1.23
2023-01-26T07:21:39.282Z,1.53
2023-01-26T07:24:09.253Z,1.64
2023-01-26T07:26:37.995Z,1.63
2023-01-26T07:29:06.527Z,1.69
2023-01-26T07:31:38.204Z,1.74
2023-01-26T07:34:06.309Z,1.72
2023-01-26T07:36:35.460Z,1.58
2023-01-26T07:39:06.437Z,1.43
2023-01-26T07:41:36.487Z,1.28
2023-01-26T07:44:15.171Z,1.12
2023-01-26T07:46:45.437Z,0.94
2023-01-26T07:49:14.762Z,0.73
2023-01-26T07:51:42.999Z,0.53
2023-01-26T07:54:12.983Z,0.36
2023-01-26T07:56:41.810Z,0.23
2023-01-26T07:59:12.193Z,0.04
2023-01-26T08:01:40.448Z,-0.19
2023-01-26T08:04:11.966Z,-0.40
2023-01-26T08:06:40.188Z,-0.59
2023-01-26T08:09:09.754Z,-0.69
2023-01-26T08:11:37.848Z,-0.76
2023-01-26T08:14:05.944Z,-0.91
2023-01-26T08:16:35.517Z,-1.08
2023-01-26T08:19:04.121Z,-1.26
2023-01-26T08:21:32.575Z,-1.39
2023-01-26T08:24:03.560Z,-1.46
2023-01-26T08:26:33.037Z,-1.54
2023-01-26T08:29:01.126Z,-1.61
2023-01-26T08:31:29.528Z,-1.64
2023-01-26T08:33:57.664Z,-1.66
2023-01-26T08:36:25.943Z,-1.67
2023-01-26T08:38:54.444Z,-1.73
2023-01-26T08:41:22.756Z,-1.80
2023-01-26T08:43:51.418Z,-1.77
2023-01-26T08:46:19.504Z,-1.71
2023-01-26T08:48:50.533Z,-1.70
2023-01-26T08:51:18.793Z,-1.68
2023-01-26T08:53:47.212Z,-1.69
2023-01-26T08:56:15.461Z,-1.66
2023-01-26T08:58:43.880Z,-1.62
2023-01-26T09:01:13.573Z,-1.58
2023-01-26T09:04:03.414Z,-1.58
2023-01-26T09:06:33.318Z,-1.63
2023-01-26T09:09:01.673Z,-1.70
2023-01-26T09:11:29.856Z,-1.74
2023-01-26T09:13:58.175Z,-1.77
2023-01-26T09:16:33.030Z,-1.75
2023-01-26T09:19:01.434Z,-1.74
2023-01-26T09:21:29.883Z,-1.75
2023-01-26T09:23:58.156Z,-1.76
2023-01-26T09:26:26.547Z,-1.74
2023-01-26T09:28:54.703Z,-1.74
2023-01-26T09:31:22.904Z,-1.73
2023-01-26T09:33:51.523Z,-1.73
2023-01-26T09:36:19.940Z,-1.74
2023-01-26T09:38:48.332Z,-1.75
2023-01-26T09:41:23.069Z,-1.74
2023-01-26T09:43:51.699Z,-1.72
2023-01-26T09:46:23.007Z,-1.72
2023-01-26T09:49:11.344Z,-1.66
2023-01-26T09:52:00.798Z,-1.58
2023-01-26T09:54:39.540Z,-1.50
2023-01-26T09:57:15.186Z,-1.42
2023-01-26T09:59:51.121Z,-1.35
2023-01-26T10:02:50.916Z,-1.33
2023-01-26T10:05:28.447Z,-1.34
2023-01-26T10:07:59.706Z,-1.28
2023-01-26T10:10:32.985Z,-1.20
2023-01-26T10:13:01.415Z,-1.18
2023-01-26T10:15:40.195Z,-1.15
2023-01-26T10:18:18.706Z,-1.13
2023-01-26T10:20:52.983Z,-1.14
2023-01-26T10:23:34.240Z,-1.13
2023-01-26T10:26:14.289Z,-1.09
2023-01-26T10:28:43.462Z,-1.02
2023-01-26T10:31:32.677Z,-0.93
2023-01-26T10:34:15.049Z,-0.84
2023-01-26T10:36:45.732Z,-0.78
2023-01-26T10:39:16.954Z,-0.71
2023-01-26T10:42:00.411Z,-0.66
2023-01-26T10:44:34.239Z,-0.59
2023-01-26T10:47:05.144Z,-0.54
2023-01-26T10:49:33.214Z,-0.51
2023-01-26T10:52:08.438Z,-0.46
2023-01-26T10:54:38.353Z,-0.39
2023-01-26T10:57:30.071Z,-0.35
2023-01-26T10:59:59.529Z,-0.34
2023-01-26T11:02:31.400Z,-0.32
2023-01-26T11:05:09.114Z,-0.28
2023-01-26T11:07:39.573Z,-0.24
2023-01-26T11:10:24.393Z,-0.19
2023-01-26T11:13:09.669Z,-0.14
2023-01-26T11:15:39.731Z,-0.09
2023-01-26T11:18:14.139Z,-0.07
2023-01-26T11:20:42.610Z,-0.03
2023-01-26T11:23:14.935Z,0.02
2023-01-26T11:26:02.917Z,0.08
2023-01-26T11:28:42.082Z,0.14
2023-01-26T11:31:30.686Z,0.21
2023-01-26T11:34:36.510Z,0.29
2023-01-26T11:37:38.599Z,0.33
2023-01-26T11:40:48.132Z,0.33
2023-01-26T11:43:45.569Z,0.35
2023-01-26T11:46:41.789Z,0.38
2023-01-26T11:49:18.962Z,0.41
2023-01-26T11:52:11.805Z,0.45
2023-01-26T11:54:55.584Z,0.49
2023-01-26T11:57:23.653Z,0.54
2023-01-26T11:59:57.334Z,0.58
2023-01-26T12:02:33.473Z,0.63
2023-01-26T12:05:12.768Z,0.67
2023-01-26T12:07:59.747Z,0.71
2023-01-26T12:10:37.540Z,0.73
2023-01-26T12:13:16.862Z,0.77
2023-01-26T12:15:48.855Z,0.80
2023-01-26T12:18:42.234Z,0.80
2023-01-26T12:21:17.504Z,0.83
2023-01-26T12:23:56.798Z,0.87
2023-01-26T12:26:26.031Z,0.92
2023-01-26T12:29:09.845Z,0.97
2023-01-26T12:32:19.973Z,0.99
2023-01-26T12:34:48.245Z,1.01
2023-01-26T12:37:47.364Z,0.99
2023-01-26T12:40:25.145Z,0.94
2023-01-26T12:43:05.412Z,0.92
2023-01-26T12:45:39.459Z,0.92
2023-01-26T12:48:14.769Z,0.95
2023-01-26T12:50:46.493Z,0.96
2023-01-26T12:53:18.686Z,0.97
2023-01-26T12:55:54.423Z,0.99
2023-01-26T12:58:25.391Z,1.00
2023-01-26T13:01:17.108Z,0.99
2023-01-26T13:03:51.539Z,1.00
2023-01-26T13:06:22.215Z,1.00
2023-01-26T13:09:12.261Z,0.98
2023-01-26T13:11:44.171Z,1.00
2023-01-26T13:14:40.030Z,1.03
2023-01-26T13:17:17.581Z,1.04
2023-01-26T13:19:46.023Z,1.05
2023-01-26T13:22:26.318Z,1.06
2023-01-26T13:24:54.599Z,1.09
2023-01-26T13:27:40.129Z,1.10
2023-01-26T13:30:24.099Z,1.10
2023-01-26T13:32:53.978Z,1.09
2023-01-26T13:35:23.626Z,1.06
2023-01-26T13:38:07.015Z,1.04
2023-01-26T13:40:37.249Z,1.03
2023-01-26T13:43:34.594Z,1.02
2023-01-26T13:46:11.843Z,1.00
2023-01-26T13:48:39.929Z,0.98
2023-01-26T13:51:12.043Z,0.98
2023-01-26T13:53:43.808Z,0.95
2023-01-26T13:56:47.685Z,0.91
2023-01-26T13:59:17.614Z,0.87
2023-01-26T14:01:49.464Z,0.81
2023-01-26T14:04:24.420Z,0.78
2023-01-26T14:07:16.634Z,0.75
2023-01-26T14:09:52.681Z,0.70
2023-01-26T14:12:23.986Z,0.67
2023-01-26T14:15:01.403Z,0.63
2023-01-26T14:17:31.091Z,0.57
2023-01-26T14:44:58.597Z,0.16
2023-01-26T14:47:30.373Z,0.11
2023-01-26T14:50:06.323Z,0.01
2023-01-26T14:52:38.384Z,-0.10
2023-01-26T14:55:11.617Z,-0.19
2023-01-26T14:57:39.853Z,-0.28
2023-01-26T15:00:10.438Z,-0.35
2023-01-26T15:02:42.967Z,-0.43
2023-01-26T15:17:44.699Z,-0.26
2023-01-26T15:20:15.569Z,-0.29
2023-01-26T15:22:50.756Z,-0.39
2023-01-26T15:25:29.575Z,-0.49
2023-01-26T15:27:59.317Z,-0.61
2023-01-26T15:30:29.416Z,-0.71
2023-01-26T15:32:58.236Z,-0.78
2023-01-26T15:35:28.146Z,-0.85
2023-01-26T15:38:10.132Z,-0.91
2023-01-26T15:40:38.786Z,-0.94
2023-01-26T15:43:13.909Z,-0.98
2023-01-26T15:45:55.659Z,-1.03
2023-01-26T15:48:27.013Z,-1.07
2023-01-26T16:06:04.749Z,-1.05
2023-01-26T16:08:33.535Z,-1.11
2023-01-26T16:11:01.687Z,-1.22
2023-01-26T16:13:30.577Z,-1.33
2023-01-26T16:15:59.893Z,-1.44
2023-01-26T16:30:45.794Z,-1.25
2023-01-26T16:33:18.186Z,-1.33
2023-01-26T16:35:49.676Z,-1.48
2023-01-26T16:38:17.922Z,-1.60
2023-01-26T16:40:47.189Z,-1.70
2023-01-26T16:43:20.915Z,-1.82
2023-01-26T16:45:50.033Z,-1.92
2023-01-26T16:48:18.322Z,-2.04
2023-01-26T16:50:46.556Z,-2.13
2023-01-26T16:53:25.172Z,-2.20
2023-01-26T16:55:53.366Z,-2.28
2023-01-26T16:58:22.063Z,-2.35
2023-01-26T17:00:50.181Z,-2.41
2023-01-26T17:03:18.254Z,-2.43
2023-01-26T17:05:50.745Z,-2.44
2023-01-26T17:08:18.945Z,-2.50
2023-01-26T17:11:01.205Z,-2.65
2023-01-26T17:13:31.707Z,-2.75
2023-01-26T17:15:59.994Z,-2.88
2023-01-26T17:18:30.395Z,-3.00
2023-01-26T17:21:02.744Z,-3.04
2023-01-26T17:23:31.546Z,-3.04
2023-01-26T17:26:00.228Z,-3.05
2023-01-26T17:28:28.249Z,-3.07
2023-01-26T17:30:59.369Z,-3.05
2023-01-26T17:33:30.016Z,-3.01
2023-01-26T17:36:02.215Z,-2.92
2023-01-26T17:38:30.483Z,-2.84
2023-01-26T17:40:58.760Z,-2.83
2023-01-26T17:43:27.245Z,-2.84
2023-01-26T17:46:05.801Z,-2.87
2023-01-26T17:48:35.574Z,-2.90
2023-01-26T17:51:11.671Z,-2.98
2023-01-26T17:53:40.636Z,-3.13
2023-01-26T17:56:10.404Z,-3.24
2023-01-26T17:58:39.021Z,-3.31
2023-01-26T18:01:09.031Z,-3.37
2023-01-26T18:03:40.769Z,-3.40
2023-01-26T18:06:09.100Z,-3.38
2023-01-26T18:08:37.883Z,-3.34
2023-01-26T18:11:08.473Z,-3.33
2023-01-26T18:13:37.407Z,-3.33
2023-01-26T18:16:07.037Z,-3.41
2023-01-26T18:18:35.586Z,-3.47
2023-01-26T18:21:11.748Z,-3.54
2023-01-26T18:23:40.040Z,-3.62
2023-01-26T18:26:08.720Z,-3.66
2023-01-26T18:28:37.089Z,-3.67
2023-01-26T18:31:10.408Z,-3.68
2023-01-26T18:33:40.125Z,-3.72
2023-01-26T18:36:09.902Z,-3.74
2023-01-26T18:38:40.052Z,-3.73
2023-01-26T18:41:14.755Z,-3.72
2023-01-26T18:43:43.349Z,-3.68
2023-01-26T18:46:12.340Z,-3.65
2023-01-26T18:48:41.423Z,-3.65
2023-01-26T18:51:10.318Z,-3.67
2023-01-26T18:53:39.084Z,-3.69
2023-01-26T18:56:08.232Z,-3.71
2023-01-26T18:58:37.812Z,-3.77
2023-01-26T19:01:12.470Z,-3.80
2023-01-26T19:03:55.424Z,-3.84
2023-01-26T19:06:24.453Z,-3.93
2023-01-26T19:08:58.896Z,-4.01
2023-01-26T19:11:31.973Z,-4.10
2023-01-26T19:14:00.549Z,-4.16
2023-01-26T19:16:29.111Z,-4.20
2023-01-26T19:18:57.550Z,-4.25
2023-01-26T19:21:27.655Z,-4.32
2023-01-26T19:23:58.576Z,-4.34
2023-01-26T19:26:29.552Z,-4.38
2023-01-26T19:28:58.089Z,-4.37
2023-01-26T19:31:26.844Z,-4.36
2023-01-26T19:33:56.898Z,-4.35
2023-01-26T19:36:25.377Z,-4.34
2023-01-26T19:38:53.554Z,-4.30
2023-01-26T19:41:22.009Z,-4.30
2023-01-26T19:43:53.183Z,-4.33
2023-01-26T19:46:21.663Z,-4.34
2023-01-26T19:48:50.459Z,-4.38
2023-01-26T19:51:22.228Z,-4.35
2023-01-26T19:53:55.000Z,-4.23
2023-01-26T19:56:30.149Z,-4.12
2023-01-26T19:58:59.970Z,-4.01
2023-01-26T20:01:33.476Z,-3.92
2023-01-26T20:04:06.673Z,-3.86
2023-01-26T20:06:35.673Z,-3.82
2023-01-26T20:09:04.613Z,-3.78
2023-01-26T20:11:32.725Z,-3.74
2023-01-26T20:14:03.556Z,-3.69
2023-01-26T20:16:32.286Z,-3.66
2023-01-26T20:19:00.694Z,-3.62
2023-01-26T20:21:29.276Z,-3.60
2023-01-26T20:23:57.539Z,-3.58
2023-01-26T20:26:27.063Z,-3.57
2023-01-26T20:28:58.136Z,-3.56
2023-01-26T20:31:27.071Z,-3.58
2023-01-26T20:33:58.571Z,-3.58
2023-01-26T20:36:27.954Z,-3.59
2023-01-26T20:38:56.330Z,-3.63
2023-01-26T20:41:27.576Z,-3.68
2023-01-26T20:44:00.323Z,-3.70
2023-01-26T20:46:31.946Z,-3.74
2023-01-26T20:49:00.087Z,-3.83
2023-01-26T20:51:31.433Z,-3.93
2023-01-26T20:53:59.818Z,-4.01
2023-01-26T20:56:28.004Z,-4.09
2023-01-26T20:58:56.878Z,-4.15
2023-01-26T21:01:25.159Z,-4.19
2023-01-26T21:03:53.537Z,-4.28
2023-01-26T21:06:22.251Z,-4.42
2023-01-26T21:08:53.060Z,-4.56
2023-01-26T21:11:27.586Z,-4.69
2023-01-26T21:13:56.765Z,-4.82
2023-01-26T21:16:25.015Z,-4.93
2023-01-26T21:18:54.467Z,-4.98
2023-01-26T21:21:22.638Z,-5.05
2023-01-26T21:23:51.064Z,-5.15
2023-01-26T21:26:22.348Z,-5.20
2023-01-26T21:28:55.252Z,-5.17
2023-01-26T21:31:25.340Z,-5.10
2023-01-26T21:33:53.751Z,-5.03
2023-01-26T21:36:23.994Z,-4.99
2023-01-26T21:38:52.828Z,-4.96
2023-01-26T21:41:45.008Z,-4.96
2023-01-26T21:44:15.124Z,-4.96
2023-01-26T21:46:47.697Z,-4.95
2023-01-26T21:49:16.178Z,-4.95
2023-01-26T21:52:03.089Z,-4.97
2023-01-26T21:54:31.907Z,-4.97
2023-01-26T21:57:00.364Z,-4.97
2023-01-26T21:59:32.533Z,-4.96
2023-01-26T22:02:00.701Z,-4.99
2023-01-26T22:04:30.127Z,-5.03
2023-01-26T22:06:58.391Z,-5.11
2023-01-26T22:09:26.765Z,-5.16
2023-01-26T22:11:55.037Z,-5.22
2023-01-26T22:14:26.234Z,-5.32
2023-01-26T22:16:55.381Z,-5.40
2023-01-26T22:19:23.555Z,-5.47
2023-01-26T22:21:52.041Z,-5.51
2023-01-26T22:24:20.233Z,-5.48
2023-01-26T22:26:49.018Z,-5.47
2023-01-26T22:29:17.072Z,-5.47
2023-01-26T22:31:45.473Z,-5.48
2023-01-26T22:34:13.849Z,-5.47
2023-01-26T22:36:42.412Z,-5.47
2023-01-26T22:39:12.364Z,-5.47
2023-01-26T22:41:40.723Z,-5.45
2023-01-26T22:44:09.092Z,-5.44
2023-01-26T22:46:37.679Z,-5.42
2023-01-26T22:49:05.950Z,-5.44
2023-01-26T22:51:37.447Z,-5.45
2023-01-26T22:54:05.898Z,-5.50
2023-01-26T22:56:34.087Z,-5.51
2023-01-26T22:59:03.669Z,-5.53
2023-01-26T23:01:33.905Z,-5.55
2023-01-26T23:04:02.482Z,-5.59
2023-01-26T23:06:31.179Z,-5.66
2023-01-26T23:09:01.353Z,-5.73
2023-01-26T23:11:30.578Z,-5.83
2023-01-26T23:13:59.395Z,-5.89
2023-01-26T23:16:27.967Z,-5.92
2023-01-26T23:18:57.151Z,-5.91
2023-01-26T23:21:26.409Z,-5.91
2023-01-26T23:23:54.607Z,-5.91
2023-01-26T23:26:23.214Z,-5.92
2023-01-26T23:28:51.701Z,-5.93
2023-01-26T23:31:20.209Z,-5.90
2023-01-26T23:33:48.658Z,-5.85
2023-01-26T23:36:17.060Z,-5.83
2023-01-26T23:38:45.924Z,-5.80
2023-01-26T23:41:14.024Z,-5.78
2023-01-26T23:43:42.277Z,-5.78
2023-01-26T23:46:10.569Z,-5.84
2023-01-26T23:48:39.033Z,-5.91
2023-01-26T23:51:11.415Z,-5.98
2023-01-26T23:53:39.684Z,-6.04
2023-01-26T23:56:16.894Z,-6.08
2023-01-26T23:58:46.072Z,-6.13
